createdAt,value
2023-12-17T00:03:28.595Z,99.5
2023-12-17T00:08:34.635Z,99.5
2023-12-17T00:13:40.579Z,99.5
2023-12-17T00:18:46.854Z,99.5
2023-12-17T00:23:51.885Z,99.5
2023-12-17T00:28:57.998Z,99.5
2023-12-17T00:34:04.119Z,99.5
2023-12-17T00:39:10.184Z,99.5
2023-12-17T00:49:22.412Z,99.5
2023-12-17T00:54:28.614Z,99.5
2023-12-17T00:59:34.638Z,99.5
2023-12-17T01:04:40.855Z,99.5
2023-12-17T01:09:46.930Z,99.5
2023-12-17T01:14:53.006Z,99.5
2023-12-17T01:19:59.154Z,99.5
2023-12-17T01:25:05.336Z,99.5
2023-12-17T01:30:10.417Z,99.5
2023-12-17T01:35:16.672Z,99.5
2023-12-17T01:40:22.735Z,99.5
2023-12-17T01:45:28.757Z,99.5
2023-12-17T01:50:34.972Z,99.5
2023-12-17T01:55:41.000Z,99.5
2023-12-17T02:00:47.090Z,99.5
2023-12-17T02:05:53.327Z,99.5
2023-12-17T02:10:59.329Z,99.5
2023-12-17T02:16:05.506Z,99.5
2023-12-17T02:21:11.599Z,99.5
2023-12-17T02:26:17.691Z,99.5
2023-12-17T02:31:23.814Z,99.5
2023-12-17T02:36:28.930Z,99.5
2023-12-17T02:41:35.233Z,99.5
2023-12-17T02:46:41.197Z,99.5
2023-12-17T02:51:47.306Z,99.5
2023-12-17T02:56:53.429Z,99.5
2023-12-17T03:01:59.537Z,99.5
2023-12-17T03:07:04.704Z,99.5
2023-12-17T03:12:10.858Z,99.5
2023-12-17T03:17:16.903Z,99.5
2023-12-17T03:22:23.039Z,99.5
2023-12-17T03:27:29.269Z,99.5
2023-12-17T03:32:35.376Z,99.5
2023-12-17T03:37:41.431Z,99.5
2023-12-17T03:42:47.517Z,99.5
2023-12-17T03:47:53.886Z,99.5
2023-12-17T03:52:59.742Z,99.5
2023-12-17T03:58:05.840Z,99.5
2023-12-17T04:03:11.985Z,99.5
2023-12-17T04:08:18.097Z,99.5
2023-12-17T04:13:23.242Z,99.5
2023-12-17T04:18:29.341Z,99.5
2023-12-17T04:23:35.530Z,99.5
2023-12-17T04:28:41.677Z,99.5
2023-12-17T04:33:47.723Z,99.5
2023-12-17T04:38:53.843Z,99.5
2023-12-17T04:43:59.951Z,99.5
2023-12-17T04:49:06.063Z,99.5
2023-12-17T04:54:12.201Z,99.5
2023-12-17T04:59:18.317Z,99.5
2023-12-17T05:04:24.450Z,99.5
2023-12-17T05:09:30.537Z,99.5
2023-12-17T05:14:36.869Z,99.5
2023-12-17T05:19:41.794Z,99.5
2023-12-17T05:24:47.915Z,99.5
2023-12-17T05:29:54.025Z,99.5
2023-12-17T05:35:00.144Z,99.5
2023-12-17T05:40:06.280Z,99.5
2023-12-17T05:45:12.458Z,99.5
2023-12-17T05:50:18.899Z,99.5
2023-12-17T05:55:25.048Z,99.5
2023-12-17T06:00:30.766Z,99.5
2023-12-17T06:05:37.031Z,99.5
2023-12-17T06:10:43.107Z,99.5
2023-12-17T06:15:49.279Z,99.5
2023-12-17T06:20:55.504Z,99.5
2023-12-17T06:26:00.645Z,99.5
2023-12-17T06:31:06.733Z,99.5
2023-12-17T06:36:12.893Z,99.5
2023-12-17T06:41:19.027Z,99.5
2023-12-17T06:46:25.079Z,99.5
2023-12-17T06:51:31.173Z,99.5
2023-12-17T06:56:37.355Z,99.5
2023-12-17T07:01:43.489Z,99.5
2023-12-17T07:06:49.646Z,99.5
2023-12-17T07:11:55.547Z,99.5
2023-12-17T07:17:01.841Z,99.5
2023-12-17T07:22:07.766Z,99.5
2023-12-17T07:27:14.081Z,99.5
2023-12-17T07:32:19.124Z,99
2023-12-17T07:37:25.246Z,99
2023-12-17T07:42:31.196Z,99
2023-12-17T07:47:37.369Z,99
2023-12-17T07:52:43.729Z,99
2023-12-17T07:57:49.841Z,98.5
2023-12-17T08:02:55.773Z,98.5
2023-12-17T08:08:01.964Z,98
2023-12-17T08:13:08.133Z,98
2023-12-17T08:18:14.329Z,97.5
2023-12-17T08:23:20.445Z,97
2023-12-17T08:28:26.605Z,97
2023-12-17T08:33:32.600Z,96.5
2023-12-17T08:38:37.777Z,96
2023-12-17T08:43:43.942Z,96
2023-12-17T08:48:50.044Z,96
2023-12-17T08:53:56.209Z,95.5
2023-12-17T08:59:02.316Z,95.5
2023-12-17T09:04:08.440Z,96
2023-12-17T09:09:14.220Z,96
2023-12-17T09:14:20.683Z,96
2023-12-17T09:19:26.780Z,96.5
2023-12-17T09:24:32.862Z,96.5
2023-12-17T09:29:39.010Z,95.5
2023-12-17T09:34:45.084Z,95
2023-12-17T09:39:51.225Z,94
2023-12-17T09:44:56.359Z,93
2023-12-17T09:50:02.330Z,93
2023-12-17T09:55:08.559Z,92
2023-12-17T10:00:14.380Z,92
2023-12-17T10:05:20.538Z,91
2023-12-17T10:10:26.760Z,90
2023-12-17T10:15:32.819Z,90
2023-12-17T10:20:39.078Z,90.5
2023-12-17T10:25:45.225Z,90.5
2023-12-17T10:30:51.309Z,90.5
2023-12-17T10:35:57.505Z,90.5
2023-12-17T10:41:03.267Z,89
2023-12-17T10:46:09.418Z,89.5
2023-12-17T10:51:14.784Z,89
2023-12-17T10:56:20.924Z,89
2023-12-17T11:01:27.525Z,88.5
2023-12-17T11:06:33.122Z,88
2023-12-17T11:11:38.947Z,89
2023-12-17T11:21:51.560Z,87.5
2023-12-17T11:26:57.512Z,87
2023-12-17T11:32:03.726Z,87.5
2023-12-17T11:37:09.904Z,87
2023-12-17T11:42:15.949Z,87
2023-12-17T11:47:22.012Z,86
2023-12-17T11:52:28.233Z,87.5
2023-12-17T11:57:33.326Z,87
2023-12-17T12:02:39.348Z,86.5
2023-12-17T12:07:45.205Z,86.5
2023-12-17T12:12:51.676Z,86.5
2023-12-17T12:17:57.625Z,86.5
2023-12-17T12:23:03.553Z,86.5
2023-12-17T12:28:10.048Z,87
2023-12-17T12:33:16.142Z,87
2023-12-17T12:38:22.229Z,86
2023-12-17T12:43:28.141Z,86
2023-12-17T12:48:34.397Z,86.5
2023-12-17T12:53:40.414Z,87
2023-12-17T12:58:46.599Z,89
2023-12-17T13:03:51.732Z,89.5
2023-12-17T13:08:57.578Z,89.5
2023-12-17T13:14:03.900Z,90
2023-12-17T13:19:10.061Z,91
2023-12-17T13:24:16.238Z,91.5
2023-12-17T13:29:22.304Z,92
2023-12-17T13:34:28.449Z,92.5
2023-12-17T13:39:34.486Z,93
2023-12-17T13:44:40.685Z,93.5
2023-12-17T13:49:46.476Z,93.5
2023-12-17T13:54:52.578Z,94
2023-12-17T13:59:59.016Z,94.5
2023-12-17T14:05:04.984Z,94
2023-12-17T14:10:10.247Z,94.5
2023-12-17T14:15:16.166Z,95
2023-12-17T14:20:22.198Z,95.5
2023-12-17T14:25:28.656Z,95.5
2023-12-17T14:30:34.432Z,96
2023-12-17T14:35:40.544Z,97.5
2023-12-17T14:40:46.994Z,98
2023-12-17T14:45:52.917Z,99.5
2023-12-17T14:50:58.967Z,99.5
2023-12-17T14:56:05.407Z,99.5
2023-12-17T15:01:11.516Z,99.5
2023-12-17T15:06:17.574Z,99.5
2023-12-17T15:11:23.431Z,99.5
2023-12-17T15:16:28.826Z,99.5
2023-12-17T15:21:34.930Z,99.5
2023-12-17T15:26:41.071Z,99.5
2023-12-17T15:31:47.223Z,99.5
2023-12-17T15:36:53.218Z,99.5
2023-12-17T15:41:59.417Z,99.5
2023-12-17T15:47:05.539Z,99.5
2023-12-17T15:52:11.687Z,99.5
2023-12-17T15:57:17.877Z,99.5
2023-12-17T16:02:23.612Z,99.5
2023-12-17T16:07:30.015Z,99.5
2023-12-17T16:12:36.175Z,99.5
2023-12-17T16:17:42.105Z,99.5
2023-12-17T16:22:47.261Z,99.5
2023-12-17T16:27:53.573Z,99.5
2023-12-17T16:32:59.346Z,99.5
2023-12-17T16:38:05.839Z,99.5
2023-12-17T16:43:11.757Z,99.5
2023-12-17T16:48:17.707Z,99.5
2023-12-17T16:53:24.052Z,99.5
2023-12-17T16:58:30.185Z,99.5
2023-12-17T17:03:36.120Z,99.5
2023-12-17T17:08:42.450Z,99.5
2023-12-17T17:13:48.585Z,99.5
2023-12-17T17:18:54.775Z,99.5
2023-12-17T17:24:00.738Z,99.5
2023-12-17T17:29:05.923Z,99.5
2023-12-17T17:34:11.940Z,99.5
2023-12-17T17:39:18.197Z,99.5
2023-12-17T17:44:24.013Z,99.5
2023-12-17T17:49:30.456Z,99.5
2023-12-17T17:54:36.562Z,99.5
2023-12-17T17:59:42.647Z,99.5
2023-12-17T18:04:48.749Z,99.5
2023-12-17T18:09:54.964Z,99.5
2023-12-17T18:15:00.924Z,99.5
2023-12-17T18:20:07.067Z,99.5
2023-12-17T18:25:13.227Z,99.5
2023-12-17T18:30:19.166Z,99.5
2023-12-17T18:35:24.471Z,99.5
2023-12-17T18:40:30.609Z,99.5
2023-12-17T18:50:42.755Z,99.5
2023-12-17T18:55:48.879Z,99.5
2023-12-17T19:00:55.091Z,99.5
2023-12-17T19:06:00.895Z,99.5
2023-12-17T19:11:07.353Z,99.5
2023-12-17T19:16:13.268Z,99.5
2023-12-17T19:21:19.513Z,99.5
2023-12-17T19:26:25.630Z,99
2023-12-17T19:31:31.764Z,99.5
2023-12-17T19:36:37.831Z,98
2023-12-17T19:41:42.746Z,98
2023-12-17T19:46:48.943Z,99
2023-12-17T19:51:55.266Z,98.5
2023-12-17T19:57:01.268Z,98
2023-12-17T20:02:07.294Z,97
2023-12-17T20:07:13.544Z,97.5
2023-12-17T20:12:18.747Z,97.5
2023-12-17T20:17:24.678Z,97
2023-12-17T20:22:30.799Z,96.5
2023-12-17T20:27:36.836Z,97.5
2023-12-17T20:32:43.120Z,97.5
2023-12-17T20:37:49.351Z,98.5
2023-12-17T20:42:55.529Z,98
2023-12-17T20:48:01.253Z,97.5
2023-12-17T20:53:07.603Z,98.5
2023-12-17T20:58:13.782Z,99
2023-12-17T21:03:19.911Z,99
2023-12-17T21:08:25.998Z,99
2023-12-17T21:13:32.139Z,99
2023-12-17T21:18:37.386Z,99.5
2023-12-17T21:23:43.390Z,99.5
2023-12-17T21:28:49.454Z,99.5
2023-12-17T21:33:55.363Z,99.5
2023-12-17T21:39:01.668Z,99.5
2023-12-17T21:44:07.872Z,99.5
2023-12-17T21:49:13.988Z,99.5
2023-12-17T21:54:19.975Z,99.5
2023-12-17T21:59:26.087Z,99.5
2023-12-17T22:04:32.289Z,99.5
2023-12-17T22:09:38.466Z,99.5
2023-12-17T22:14:44.489Z,99.5
2023-12-17T22:19:50.397Z,99.5
2023-12-17T22:24:55.744Z,99.5
2023-12-17T22:30:01.782Z,99.5
2023-12-17T22:35:08.037Z,99.5
2023-12-17T22:40:13.883Z,99.5
2023-12-17T22:45:19.988Z,99.5
2023-12-17T22:50:26.126Z,99.5
2023-12-17T22:55:32.226Z,99.5
2023-12-17T23:00:38.350Z,99.5
2023-12-17T23:05:44.459Z,99.5
2023-12-17T23:10:50.592Z,99.5
2023-12-17T23:15:56.696Z,99.5
2023-12-17T23:21:02.837Z,99.5
2023-12-17T23:26:08.943Z,99.5
2023-12-17T23:36:20.187Z,99.5
2023-12-17T23:41:26.347Z,99.5
2023-12-17T23:46:32.422Z,99.5
2023-12-17T23:51:38.534Z,99.5
2023-12-17T23:56:44.661Z,99.5
